createdAt,value
2019-02-07T00:00:11.181Z,8.70
2019-02-07T00:02:44.656Z,8.70
2019-02-07T00:05:16.114Z,8.70
2019-02-07T00:07:47.489Z,8.70
2019-02-07T00:10:19.616Z,8.70
2019-02-07T00:12:51.110Z,8.70
2019-02-07T00:15:22.522Z,8.70
2019-02-07T00:17:55.690Z,8.80
2019-02-07T00:20:27.876Z,8.80
2019-02-07T00:23:00.462Z,8.80
2019-02-07T00:25:32.794Z,8.80
2019-02-07T00:28:04.372Z,8.80
2019-02-07T00:30:37.864Z,8.80
2019-02-07T00:33:10.133Z,8.90
2019-02-07T00:35:42.045Z,8.90
2019-02-07T00:38:15.383Z,8.90
2019-02-07T00:40:48.946Z,9.00
2019-02-07T00:43:24.124Z,8.90
2019-02-07T00:45:58.230Z,8.90
2019-02-07T00:48:30.637Z,9.00
2019-02-07T00:51:03.036Z,9.00
2019-02-07T00:53:34.550Z,9.00
2019-02-07T00:56:07.168Z,9.00
2019-02-07T00:58:38.609Z,9.00
2019-02-07T01:01:10.635Z,9.00
2019-02-07T01:03:42.352Z,9.00
2019-02-07T01:06:16.687Z,9.00
2019-02-07T01:08:50.403Z,9.00
2019-02-07T01:11:33.587Z,9.00
2019-02-07T01:14:17.637Z,9.10
2019-02-07T01:16:49.629Z,9.10
2019-02-07T01:19:21.381Z,9.10
2019-02-07T01:21:53.469Z,9.10
2019-02-07T01:24:25.437Z,9.20
2019-02-07T01:26:57.077Z,9.20
2019-02-07T01:29:28.640Z,9.20
2019-02-07T01:32:04.115Z,9.20
2019-02-07T01:34:35.625Z,9.20
2019-02-07T01:37:07.419Z,9.20
2019-02-07T01:39:39.055Z,9.20
2019-02-07T01:42:10.453Z,9.30
2019-02-07T01:44:42.260Z,9.30
2019-02-07T01:47:15.555Z,9.30
2019-02-07T01:49:47.411Z,9.30
2019-02-07T01:52:19.459Z,9.30
2019-02-07T01:54:51.016Z,9.30
2019-02-07T01:57:22.414Z,9.30
2019-02-07T01:59:54.110Z,9.30
2019-02-07T02:02:25.408Z,9.40
2019-02-07T02:04:57.500Z,9.50
2019-02-07T02:07:28.925Z,9.40
2019-02-07T02:10:01.330Z,9.50
2019-02-07T02:12:32.626Z,9.50
2019-02-07T02:15:05.152Z,9.50
2019-02-07T02:17:38.804Z,9.50
2019-02-07T02:20:11.593Z,9.50
2019-02-07T02:22:45.075Z,9.50
2019-02-07T02:25:17.480Z,9.50
2019-02-07T02:27:50.160Z,9.50
2019-02-07T02:30:26.536Z,9.50
2019-02-07T02:32:58.641Z,9.60
2019-02-07T02:35:31.452Z,9.60
2019-02-07T02:38:04.020Z,9.60
2019-02-07T02:40:35.446Z,9.60
2019-02-07T02:43:07.044Z,9.60
2019-02-07T02:45:38.900Z,9.60
2019-02-07T02:48:10.453Z,9.60
2019-02-07T02:50:41.889Z,9.60
2019-02-07T02:53:13.460Z,9.60
2019-02-07T02:55:46.028Z,9.60
2019-02-07T02:58:17.547Z,9.60
2019-02-07T03:01:03.614Z,9.60
2019-02-07T03:04:03.534Z,9.50
2019-02-07T03:06:52.765Z,9.60
2019-02-07T03:09:42.892Z,9.60
2019-02-07T03:12:44.313Z,9.60
2019-02-07T03:15:49.203Z,9.60
2019-02-07T03:18:35.876Z,9.60
2019-02-07T03:21:24.883Z,9.60
2019-02-07T03:24:27.221Z,9.60
2019-02-07T03:27:30.010Z,9.60
2019-02-07T03:30:26.372Z,9.50
2019-02-07T03:33:11.929Z,9.60
2019-02-07T03:36:10.330Z,9.60
2019-02-07T03:39:03.094Z,9.60
2019-02-07T03:41:58.920Z,9.60
2019-02-07T03:45:03.073Z,9.60
2019-02-07T03:47:49.339Z,9.60
2019-02-07T03:50:53.904Z,9.60
2019-02-07T03:53:54.874Z,9.60
2019-02-07T03:56:40.009Z,9.60
2019-02-07T03:59:31.055Z,9.60
2019-02-07T04:02:33.847Z,9.60
2019-02-07T04:05:25.703Z,9.60
2019-02-07T04:08:17.213Z,9.60
2019-02-07T04:11:06.547Z,9.60
2019-02-07T04:13:57.089Z,9.60
2019-02-07T04:16:56.667Z,9.60
2019-02-07T04:19:47.680Z,9.60
2019-02-07T04:22:41.073Z,9.60
2019-02-07T04:25:31.418Z,9.60
2019-02-07T04:28:22.994Z,9.60
2019-02-07T04:31:12.778Z,9.60
2019-02-07T04:34:22.609Z,9.50
2019-02-07T04:37:12.499Z,9.50
2019-02-07T04:40:01.478Z,9.50
2019-02-07T04:42:56.496Z,9.50
2019-02-07T04:45:45.587Z,9.50
2019-02-07T04:48:36.781Z,9.50
2019-02-07T04:51:36.106Z,9.50
2019-02-07T04:54:25.732Z,9.50
2019-02-07T04:57:14.922Z,9.50
2019-02-07T04:59:54.212Z,9.50
2019-02-07T05:02:50.858Z,9.60
2019-02-07T05:05:43.972Z,9.60
2019-02-07T05:08:44.020Z,9.50
2019-02-07T05:11:40.446Z,9.40
2019-02-07T05:14:29.790Z,9.20
2019-02-07T05:17:35.104Z,9.00
2019-02-07T05:20:32.569Z,8.80
2019-02-07T05:23:24.068Z,8.70
2019-02-07T05:26:13.589Z,8.60
2019-02-07T05:29:09.037Z,8.40
2019-02-07T05:32:02.362Z,8.40
2019-02-07T05:34:52.743Z,8.40
2019-02-07T05:37:36.771Z,8.40
2019-02-07T05:40:27.583Z,8.40
2019-02-07T05:43:09.674Z,8.40
2019-02-07T05:46:00.986Z,8.40
2019-02-07T05:48:58.984Z,8.40
2019-02-07T05:51:49.255Z,8.40
2019-02-07T05:54:58.313Z,8.20
2019-02-07T05:57:52.187Z,8.20
2019-02-07T06:00:51.499Z,8.20
2019-02-07T06:03:54.520Z,8.10
2019-02-07T06:07:00.256Z,8.10
2019-02-07T06:09:48.934Z,8.10
2019-02-07T06:12:39.603Z,8.10
2019-02-07T06:15:32.744Z,8.00
2019-02-07T06:18:16.395Z,8.00
2019-02-07T06:21:25.454Z,7.90
2019-02-07T06:24:25.345Z,7.80
2019-02-07T06:27:12.769Z,7.80
2019-02-07T06:29:56.266Z,7.70
2019-02-07T06:32:49.422Z,7.70
2019-02-07T06:35:33.971Z,7.60
2019-02-07T06:38:29.758Z,7.60
2019-02-07T06:41:21.981Z,7.50
2019-02-07T06:44:12.624Z,7.50
2019-02-07T06:46:57.207Z,7.50
2019-02-07T06:49:47.288Z,7.40
2019-02-07T06:52:36.736Z,7.40
2019-02-07T06:55:22.251Z,7.40
2019-02-07T06:58:16.478Z,7.30
2019-02-07T07:01:09.930Z,7.40
2019-02-07T07:03:53.942Z,7.40
2019-02-07T07:06:41.717Z,7.30
2019-02-07T07:09:31.312Z,7.30
2019-02-07T07:12:26.975Z,7.30
2019-02-07T07:15:17.606Z,7.30
2019-02-07T07:18:08.580Z,7.20
2019-02-07T07:20:59.551Z,7.20
2019-02-07T07:24:05.725Z,7.20
2019-02-07T07:26:51.200Z,7.20
2019-02-07T07:29:34.677Z,7.20
2019-02-07T07:32:32.039Z,7.30
2019-02-07T07:35:22.624Z,7.30
2019-02-07T07:38:11.676Z,7.40
2019-02-07T07:41:01.845Z,7.40
2019-02-07T07:44:01.030Z,7.40
2019-02-07T07:46:57.661Z,7.40
2019-02-07T07:49:46.569Z,7.40
2019-02-07T07:52:37.206Z,7.40
2019-02-07T07:55:27.668Z,7.40
2019-02-07T07:58:16.988Z,7.40
2019-02-07T08:01:08.277Z,7.50
2019-02-07T08:03:54.962Z,7.40
2019-02-07T08:06:44.310Z,7.50
2019-02-07T08:09:40.624Z,7.40
2019-02-07T08:12:31.386Z,7.40
2019-02-07T08:15:18.383Z,7.40
2019-02-07T08:18:12.207Z,7.40
2019-02-07T08:21:00.927Z,7.40
2019-02-07T08:23:47.583Z,7.40
2019-02-07T08:26:31.035Z,7.30
2019-02-07T08:29:22.829Z,7.30
2019-02-07T08:32:06.239Z,7.30
2019-02-07T08:34:49.562Z,7.30
2019-02-07T08:37:39.134Z,7.30
2019-02-07T08:40:39.464Z,7.40
2019-02-07T08:43:30.971Z,7.40
2019-02-07T08:46:40.012Z,7.30
2019-02-07T08:49:29.972Z,7.40
2019-02-07T08:52:22.681Z,7.30
2019-02-07T08:55:16.027Z,7.30
2019-02-07T08:58:07.341Z,7.40
2019-02-07T09:00:57.993Z,7.40
2019-02-07T09:03:59.151Z,7.50
2019-02-07T09:06:49.574Z,7.50
2019-02-07T09:09:38.599Z,7.60
2019-02-07T09:12:21.526Z,7.70
2019-02-07T09:15:09.071Z,7.90
2019-02-07T09:18:13.360Z,7.90
2019-02-07T09:21:02.537Z,8.00
2019-02-07T09:24:00.131Z,8.10
2019-02-07T09:27:09.414Z,8.30
2019-02-07T09:30:07.441Z,8.50
2019-02-07T09:33:09.796Z,8.60
2019-02-07T09:36:05.235Z,8.70
2019-02-07T09:38:51.905Z,8.80
2019-02-07T09:41:38.361Z,8.90
2019-02-07T09:44:22.870Z,8.90
2019-02-07T09:47:30.477Z,9.00
2019-02-07T09:50:24.863Z,9.00
2019-02-07T09:53:24.261Z,9.10
2019-02-07T09:56:17.974Z,9.10
2019-02-07T09:59:14.476Z,9.10
2019-02-07T10:02:11.830Z,9.20
2019-02-07T10:05:11.853Z,9.20
2019-02-07T10:08:00.418Z,9.30
2019-02-07T10:10:44.558Z,9.30
2019-02-07T10:13:35.575Z,9.40
2019-02-07T10:16:31.666Z,9.40
2019-02-07T10:19:22.690Z,9.30
2019-02-07T10:22:15.910Z,9.20
2019-02-07T10:25:21.793Z,9.20
2019-02-07T10:28:11.372Z,9.20
2019-02-07T10:31:16.864Z,9.20
2019-02-07T10:34:09.071Z,9.20
2019-02-07T10:36:58.908Z,9.20
2019-02-07T10:39:50.678Z,9.20
2019-02-07T10:42:48.506Z,9.20
2019-02-07T10:45:38.033Z,9.20
2019-02-07T10:48:32.359Z,9.10
2019-02-07T10:51:25.222Z,9.10
2019-02-07T10:54:18.199Z,9.20
2019-02-07T10:57:07.539Z,9.30
2019-02-07T10:59:56.785Z,9.50
2019-02-07T11:02:59.583Z,9.60
2019-02-07T11:05:54.612Z,9.70
2019-02-07T11:09:03.542Z,9.80
2019-02-07T11:12:13.354Z,9.90
2019-02-07T11:15:09.405Z,10.00
2019-02-07T11:17:59.674Z,9.90
2019-02-07T11:20:48.713Z,9.70
2019-02-07T11:23:38.331Z,9.70
2019-02-07T11:26:27.525Z,9.70
2019-02-07T11:29:15.831Z,9.70
2019-02-07T11:32:16.237Z,9.80
2019-02-07T11:35:12.690Z,9.70
2019-02-07T11:38:18.408Z,9.70
2019-02-07T11:41:07.698Z,9.80
2019-02-07T11:44:10.224Z,10.00
2019-02-07T11:47:06.255Z,10.00
2019-02-07T11:50:08.526Z,9.90
2019-02-07T11:53:05.025Z,9.90
2019-02-07T11:55:57.954Z,9.80
2019-02-07T11:58:46.534Z,9.90
2019-02-07T12:01:55.196Z,10.00
2019-02-07T12:05:01.037Z,9.90
2019-02-07T12:07:54.936Z,9.80
2019-02-07T12:10:54.657Z,10.00
2019-02-07T12:13:44.810Z,10.20
2019-02-07T12:16:41.574Z,10.20
2019-02-07T12:19:31.248Z,10.40
2019-02-07T12:22:22.251Z,10.50
2019-02-07T12:25:13.110Z,10.40
2019-02-07T12:28:23.768Z,10.30
2019-02-07T12:31:30.173Z,10.40
2019-02-07T12:34:23.761Z,10.70
2019-02-07T12:37:23.101Z,10.90
2019-02-07T12:40:12.024Z,10.90
2019-02-07T12:43:04.106Z,10.90
2019-02-07T12:46:01.537Z,10.70
2019-02-07T12:49:00.067Z,10.60
2019-02-07T12:51:56.553Z,10.40
2019-02-07T12:54:46.201Z,10.40
2019-02-07T12:57:37.354Z,10.40
2019-02-07T13:00:45.041Z,10.50
2019-02-07T13:03:34.267Z,10.40
2019-02-07T13:06:24.521Z,10.50
2019-02-07T13:09:18.214Z,10.50
2019-02-07T13:12:09.204Z,10.50
2019-02-07T13:14:54.058Z,10.40
2019-02-07T13:17:34.312Z,10.30
2019-02-07T13:20:25.129Z,10.20
2019-02-07T13:23:14.033Z,10.40
2019-02-07T13:25:55.507Z,10.40
2019-02-07T13:28:49.529Z,10.40
2019-02-07T13:31:39.247Z,10.60
2019-02-07T13:34:33.997Z,10.70
2019-02-07T13:37:37.152Z,10.90
2019-02-07T13:40:35.338Z,10.90
2019-02-07T13:43:28.782Z,10.90
2019-02-07T13:46:20.410Z,10.70
2019-02-07T13:49:20.331Z,10.50
2019-02-07T13:52:05.078Z,10.50
2019-02-07T13:54:43.244Z,10.30
2019-02-07T13:57:42.333Z,10.10
2019-02-07T14:00:45.287Z,10.20
2019-02-07T14:03:49.146Z,10.30
2019-02-07T14:06:49.533Z,10.20
2019-02-07T14:09:45.095Z,10.10
2019-02-07T14:12:47.957Z,10.20
2019-02-07T14:15:36.529Z,10.20
2019-02-07T14:18:26.260Z,10.30
2019-02-07T14:21:16.453Z,10.20
2019-02-07T14:23:55.364Z,10.20
2019-02-07T14:26:35.663Z,10.20
2019-02-07T14:29:38.823Z,10.20
2019-02-07T14:32:28.395Z,10.40
2019-02-07T14:35:17.602Z,10.50
2019-02-07T14:38:01.716Z,10.30
2019-02-07T14:40:42.443Z,10.30
2019-02-07T14:43:47.673Z,10.30
2019-02-07T14:46:38.893Z,10.40
2019-02-07T14:49:10.539Z,10.40
2019-02-07T14:51:43.097Z,10.30
2019-02-07T14:54:16.460Z,10.20
2019-02-07T14:56:48.289Z,10.10
2019-02-07T14:59:19.929Z,10.10
2019-02-07T15:01:51.691Z,10.10
2019-02-07T15:04:23.734Z,10.20
2019-02-07T15:06:56.618Z,10.20
2019-02-07T15:09:28.490Z,10.40
2019-02-07T15:12:00.013Z,10.40
2019-02-07T15:14:31.663Z,10.20
2019-02-07T15:17:04.641Z,10.10
2019-02-07T15:19:39.760Z,10.30
2019-02-07T15:22:11.695Z,10.30
2019-02-07T15:24:43.318Z,10.30
2019-02-07T15:27:15.187Z,10.40
2019-02-07T15:29:47.383Z,10.40
2019-02-07T15:32:19.167Z,10.50
2019-02-07T15:34:53.924Z,10.20
2019-02-07T15:37:25.750Z,9.90
2019-02-07T15:39:57.382Z,9.70
2019-02-07T15:42:28.823Z,9.70
2019-02-07T15:45:02.104Z,9.60
2019-02-07T15:47:35.061Z,9.40
2019-02-07T15:50:12.180Z,9.50
2019-02-07T15:52:45.434Z,9.30
2019-02-07T15:55:17.751Z,9.30
2019-02-07T15:57:49.420Z,9.20
2019-02-07T16:00:47.369Z,9.30
2019-02-07T16:03:37.853Z,9.30
2019-02-07T16:06:09.768Z,9.30
2019-02-07T16:08:44.169Z,9.10
2019-02-07T16:11:16.807Z,9.00
2019-02-07T16:13:49.910Z,8.90
2019-02-07T16:16:22.456Z,8.80
2019-02-07T16:18:54.262Z,8.80
2019-02-07T16:21:26.038Z,8.80
2019-02-07T16:23:57.743Z,8.80
2019-02-07T16:26:29.464Z,8.80
2019-02-07T16:29:00.809Z,8.70
2019-02-07T16:31:32.376Z,8.70
2019-02-07T16:34:05.473Z,8.70
2019-02-07T16:36:37.494Z,8.70
2019-02-07T16:39:10.534Z,8.70
2019-02-07T16:41:42.187Z,8.60
2019-02-07T16:44:15.346Z,8.70
2019-02-07T16:46:46.795Z,8.60
2019-02-07T16:49:18.834Z,8.60
2019-02-07T16:51:50.590Z,8.60
2019-02-07T16:54:22.558Z,8.60
2019-02-07T16:56:54.161Z,8.50
2019-02-07T16:59:26.128Z,8.40
2019-02-07T17:01:57.794Z,8.40
2019-02-07T17:04:29.544Z,8.30
2019-02-07T17:07:01.198Z,8.30
2019-02-07T17:09:44.202Z,8.20
2019-02-07T17:12:16.503Z,8.10
2019-02-07T17:14:48.529Z,8.10
2019-02-07T17:17:21.559Z,8.00
2019-02-07T17:19:53.846Z,8.00
2019-02-07T17:22:25.151Z,8.00
2019-02-07T17:24:57.010Z,8.00
2019-02-07T17:27:29.709Z,7.90
2019-02-07T17:30:01.267Z,7.90
2019-02-07T17:32:32.888Z,7.80
2019-02-07T17:35:05.243Z,7.80
2019-02-07T17:37:36.725Z,7.80
2019-02-07T17:40:15.007Z,7.80
2019-02-07T17:42:46.685Z,7.80
2019-02-07T17:45:20.570Z,7.80
2019-02-07T17:47:53.279Z,7.80
2019-02-07T17:50:31.099Z,7.70
2019-02-07T17:53:05.628Z,7.70
2019-02-07T17:55:37.517Z,7.70
2019-02-07T17:58:09.566Z,7.70
2019-02-07T18:00:59.148Z,7.70
2019-02-07T18:03:31.153Z,7.60
2019-02-07T18:06:02.784Z,7.60
2019-02-07T18:08:34.512Z,7.60
2019-02-07T18:11:06.835Z,7.60
2019-02-07T18:13:39.815Z,7.60
2019-02-07T18:16:11.608Z,7.50
2019-02-07T18:18:43.611Z,7.50
2019-02-07T18:21:16.445Z,7.40
2019-02-07T18:23:48.083Z,7.40
2019-02-07T18:26:19.727Z,7.40
2019-02-07T18:28:51.346Z,7.30
2019-02-07T18:31:23.317Z,7.30
2019-02-07T18:33:55.591Z,7.20
2019-02-07T18:36:27.470Z,7.20
2019-02-07T18:38:59.336Z,7.30
2019-02-07T18:41:31.072Z,7.20
2019-02-07T18:44:03.457Z,7.10
2019-02-07T18:46:35.348Z,7.10
2019-02-07T18:49:07.782Z,7.00
2019-02-07T18:51:45.519Z,6.90
2019-02-07T18:54:13.497Z,6.90
2019-02-07T18:56:45.040Z,6.90
2019-02-07T18:59:16.628Z,6.90
2019-02-07T19:01:48.444Z,6.80
2019-02-07T19:04:20.088Z,6.90
2019-02-07T19:06:52.792Z,6.90
2019-02-07T19:09:24.178Z,6.90
2019-02-07T19:11:55.850Z,6.90
2019-02-07T19:14:27.644Z,6.90
2019-02-07T19:16:59.448Z,6.80
2019-02-07T19:19:31.071Z,6.80
2019-02-07T19:22:02.444Z,6.80
2019-02-07T19:24:35.655Z,6.70
2019-02-07T19:27:10.376Z,6.80
2019-02-07T19:29:41.742Z,6.70
2019-02-07T19:32:13.425Z,6.80
2019-02-07T19:34:45.201Z,6.70
2019-02-07T19:37:17.414Z,6.80
2019-02-07T19:39:49.073Z,6.80
2019-02-07T19:42:20.745Z,6.80
2019-02-07T19:44:52.279Z,6.70
2019-02-07T19:47:24.362Z,6.70
2019-02-07T19:49:57.386Z,6.70
2019-02-07T19:52:29.089Z,6.70
2019-02-07T19:55:02.777Z,6.70
2019-02-07T19:57:34.528Z,6.70
2019-02-07T20:00:10.265Z,6.60
2019-02-07T20:02:41.791Z,6.60
2019-02-07T20:05:13.433Z,6.60
2019-02-07T20:07:45.116Z,6.60
2019-02-07T20:10:19.921Z,6.60
2019-02-07T20:12:51.659Z,6.60
2019-02-07T20:15:31.092Z,6.60
2019-02-07T20:18:03.552Z,6.60
2019-02-07T20:20:35.043Z,6.60
2019-02-07T20:23:08.669Z,6.50
2019-02-07T20:25:40.985Z,6.50
2019-02-07T20:28:14.446Z,6.60
2019-02-07T20:30:46.462Z,6.50
2019-02-07T20:33:20.028Z,6.60
2019-02-07T20:35:52.001Z,6.60
2019-02-07T20:38:24.563Z,6.50
2019-02-07T20:40:55.900Z,6.50
2019-02-07T20:43:27.964Z,6.50
2019-02-07T20:46:00.139Z,6.50
2019-02-07T20:48:31.587Z,6.40
2019-02-07T20:51:03.484Z,6.40
2019-02-07T20:53:38.076Z,6.40
2019-02-07T20:56:10.294Z,6.30
2019-02-07T20:58:42.996Z,6.30
2019-02-07T21:01:14.601Z,6.30
2019-02-07T21:03:47.964Z,6.30
2019-02-07T21:06:19.467Z,6.30
2019-02-07T21:08:51.254Z,6.20
2019-02-07T21:11:23.145Z,6.20
2019-02-07T21:13:55.642Z,6.20
2019-02-07T21:16:27.936Z,6.10
2019-02-07T21:19:00.189Z,6.20
2019-02-07T21:21:32.170Z,6.20
2019-02-07T21:24:03.749Z,6.20
2019-02-07T21:26:35.246Z,6.20
2019-02-07T21:29:07.000Z,6.20
2019-02-07T21:31:39.860Z,6.10
2019-02-07T21:34:11.787Z,6.10
2019-02-07T21:36:43.586Z,6.00
2019-02-07T21:39:15.551Z,6.00
2019-02-07T21:41:47.964Z,5.90
2019-02-07T21:44:19.700Z,6.00
2019-02-07T21:46:52.240Z,6.00
2019-02-07T21:49:24.256Z,6.00
2019-02-07T21:51:56.955Z,6.00
2019-02-07T21:54:30.150Z,6.00
2019-02-07T21:57:02.941Z,5.90
2019-02-07T21:59:36.234Z,5.90
2019-02-07T22:02:09.765Z,5.90
2019-02-07T22:04:42.092Z,5.90
2019-02-07T22:07:13.763Z,5.90
2019-02-07T22:09:45.514Z,5.80
2019-02-07T22:12:17.042Z,5.80
2019-02-07T22:14:48.888Z,5.80
2019-02-07T22:17:20.673Z,5.70
2019-02-07T22:19:52.053Z,5.80
2019-02-07T22:22:23.771Z,5.80
2019-02-07T22:24:56.763Z,5.80
2019-02-07T22:27:28.533Z,5.80
2019-02-07T22:30:00.037Z,5.70
2019-02-07T22:32:32.709Z,5.80
2019-02-07T22:35:05.155Z,5.70
2019-02-07T22:37:37.065Z,5.70
2019-02-07T22:40:12.328Z,5.70
2019-02-07T22:42:47.961Z,5.60
2019-02-07T22:45:19.254Z,5.70
2019-02-07T22:47:51.123Z,5.60
2019-02-07T22:50:27.605Z,5.70
2019-02-07T22:53:00.083Z,5.80
2019-02-07T22:55:31.701Z,5.80
2019-02-07T22:58:03.384Z,5.80
2019-02-07T23:01:15.972Z,5.80
2019-02-07T23:03:52.526Z,5.80
2019-02-07T23:06:24.255Z,5.80
2019-02-07T23:08:56.058Z,5.80
2019-02-07T23:11:27.627Z,5.70
2019-02-07T23:14:01.398Z,5.80
2019-02-07T23:16:33.335Z,5.70
2019-02-07T23:19:07.204Z,5.80
2019-02-07T23:21:40.198Z,5.70
2019-02-07T23:24:13.811Z,5.70
2019-02-07T23:26:46.673Z,5.70
2019-02-07T23:29:18.242Z,5.80
2019-02-07T23:31:50.506Z,5.70
2019-02-07T23:34:21.991Z,5.70
2019-02-07T23:36:54.846Z,5.80
2019-02-07T23:39:26.604Z,5.80
2019-02-07T23:41:58.156Z,5.90
2019-02-07T23:44:30.098Z,6.00
2019-02-07T23:47:01.814Z,6.00
2019-02-07T23:49:34.686Z,6.10
2019-02-07T23:52:06.091Z,6.10
2019-02-07T23:54:38.126Z,6.20
2019-02-07T23:57:10.430Z,6.20
2019-02-07T23:59:42.149Z,6.20
